Time;durP1;ratioP1;P1;durP2;ratioP2;P2;SDS_P1;SDS_P2;PMS_P1;PMS_P2;Temp;Humidity;BMP_temperature;BMP_pressure;BME280_temperature;BME280_humidity;BME280_pressure;Samples;Min_cycle;Max_cycle;Signal;HPM_P1;HPM_P2
2022/10/20 00:00:30;;;;;;;4.60;2.50;;;7.60;1.00;;;;;;10482179;28;20216;-81
2022/10/20 00:05:51;;;;;;;4.77;2.30;;;7.60;1.00;;;;;;10477226;28;20184;-81
2022/10/20 00:11:16;;;;;;;3.07;2.20;;;7.50;1.00;;;;;;10510746;28;20216;-81
2022/10/20 00:16:38;;;;;;;4.43;2.77;;;7.40;1.00;;;;;;10493255;28;20206;-82
2022/10/20 00:22:00;;;;;;;13.23;6.47;;;7.40;1.00;;;;;;10490043;28;20229;-81
2022/10/20 00:27:21;;;;;;;5.50;2.80;;;7.40;99.90;;;;;;10459012;28;20195;-82
2022/10/20 00:32:42;;;;;;;3.57;2.03;;;7.40;1.00;;;;;;10493215;28;20392;-80
2022/10/20 00:38:03;;;;;;;3.53;2.20;;;7.40;1.00;;;;;;10496040;28;20384;-81
2022/10/20 00:43:48;;;;;;;3.30;1.97;;;7.40;1.00;;;;;;10490225;28;20224;-81
2022/10/20 00:49:22;;;;;;;3.30;2.00;;;7.30;1.00;;;;;;10492635;28;20310;-82
2022/10/20 00:54:43;;;;;;;3.93;2.37;;;7.20;1.00;;;;;;10498033;28;20231;-81
2022/10/20 01:00:07;;;;;;;4.17;2.33;;;7.00;1.00;;;;;;10500005;28;20195;-82
2022/10/20 01:05:29;;;;;;;8.33;4.67;;;;;;;;;;10497619;28;20210;-81
2022/10/20 01:11:09;;;;;;;22.40;12.43;;;;;;;;;;10483054;28;20553;-81
2022/10/20 01:16:49;;;;;;;11.90;7.73;;;;;;;;;;10502256;28;20460;-80
2022/10/20 01:22:17;;;;;;;7.57;4.00;;;;;;;;;;10511765;28;20238;-80
2022/10/20 01:27:42;;;;;;;6.03;3.23;;;;;;;;;;10448252;28;20270;-81
2022/10/20 01:33:27;;;;;;;4.20;3.10;;;;;;;;;;10496177;28;20207;-81
2022/10/20 01:38:51;;;;;;;5.97;3.07;;;;;;;;;;10515978;28;20229;-80
2022/10/20 01:44:15;;;;;;;4.57;2.73;;;6.20;99.90;;;;;;10481942;28;20242;-80
2022/10/20 01:49:37;;;;;;;5.53;3.00;;;6.00;99.90;;;;;;10510464;28;20514;-81
2022/10/20 01:54:58;;;;;;;6.67;3.37;;;5.90;99.90;;;;;;10515069;28;20423;-82
2022/10/20 02:00:19;;;;;;;7.50;4.10;;;5.80;1.00;;;;;;10495317;28;20217;-81
2022/10/20 02:06:14;;;;;;;6.00;3.90;;;5.70;1.00;;;;;;10485662;28;20206;-81
2022/10/20 02:11:48;;;;;;;7.43;3.77;;;5.60;99.90;;;;;;10497152;28;20241;-81
2022/10/20 02:17:14;;;;;;;5.63;3.63;;;5.50;1.00;;;;;;10494558;28;20203;-81
2022/10/20 02:22:36;;;;;;;5.67;3.03;;;5.50;1.00;;;;;;10483110;28;20231;-81
2022/10/20 02:28:00;;;;;;;5.53;3.70;;;5.50;1.00;;;;;;10465333;28;20240;-81
2022/10/20 02:33:22;;;;;;;5.23;3.20;;;5.40;1.00;;;;;;10496968;28;20256;-80
2022/10/20 02:38:44;;;;;;;7.03;3.20;;;5.40;1.00;;;;;;10501242;28;20241;-80
2022/10/20 02:44:05;;;;;;;5.03;3.07;;;5.50;1.00;;;;;;10525938;28;20261;-80
2022/10/20 02:49:26;;;;;;;6.03;3.60;;;5.40;1.00;;;;;;10493297;28;20207;-81
2022/10/20 02:54:48;;;;;;;8.80;3.80;;;5.40;1.00;;;;;;10492979;28;20211;-80
2022/10/20 03:00:10;;;;;;;6.20;4.00;;;;;;;;;;10507404;28;20398;-80
2022/10/20 03:05:32;;;;;;;10.73;4.83;;;5.30;1.00;;;;;;10497903;28;20202;-80
2022/10/20 03:10:53;;;;;;;7.77;5.17;;;5.20;1.00;;;;;;10507276;28;20465;-81
2022/10/20 03:16:14;;;;;;;6.37;3.83;;;5.20;1.00;;;;;;10507056;28;20271;-80
2022/10/20 03:21:36;;;;;;;5.37;3.07;;;5.30;1.00;;;;;;10491917;28;20253;-81
2022/10/20 03:26:57;;;;;;;5.37;2.87;;;5.30;1.00;;;;;;10478724;28;20209;-80
2022/10/20 03:32:18;;;;;;;7.40;3.40;;;5.30;1.00;;;;;;10491520;28;20553;-80
2022/10/20 03:37:39;;;;;;;6.60;4.27;;;5.30;1.00;;;;;;10491559;28;20509;-80
2022/10/20 03:43:01;;;;;;;5.53;3.67;;;5.30;1.00;;;;;;10491519;28;20419;-81
2022/10/20 03:48:22;;;;;;;8.13;4.17;;;5.30;1.00;;;;;;10491886;28;20195;-81
2022/10/20 03:53:43;;;;;;;5.87;3.63;;;5.30;1.00;;;;;;10505659;28;20221;-82
2022/10/20 03:59:04;;;;;;;6.10;2.93;;;5.30;1.00;;;;;;10496539;28;20203;-81
2022/10/20 04:04:26;;;;;;;3.93;2.90;;;5.30;1.00;;;;;;10493195;28;20234;-81
2022/10/20 04:09:47;;;;;;;8.73;5.57;;;5.30;1.00;;;;;;10493344;28;20663;-81
2022/10/20 04:15:10;;;;;;;13.10;5.83;;;5.20;1.00;;;;;;10493169;28;20229;-81
2022/10/20 04:20:31;;;;;;;9.27;5.40;;;5.10;1.00;;;;;;10490528;28;20221;-81
2022/10/20 04:25:52;;;;;;;8.80;5.20;;;5.00;1.00;;;;;;10458475;28;20397;-80
2022/10/20 04:31:14;;;;;;;12.67;5.90;;;5.00;1.00;;;;;;10498245;28;20316;-81
2022/10/20 04:36:35;;;;;;;8.07;5.27;;;4.90;1.00;;;;;;10498516;28;20274;-80
2022/10/20 04:41:56;;;;;;;10.57;5.70;;;4.90;1.00;;;;;;10486952;28;20285;-81
2022/10/20 04:47:17;;;;;;;8.87;6.23;;;5.00;1.00;;;;;;10505933;28;20198;-80
2022/10/20 04:52:38;;;;;;;13.50;5.93;;;5.00;1.00;;;;;;10498294;28;20198;-80
2022/10/20 04:58:00;;;;;;;10.13;6.53;;;5.00;1.00;;;;;;10500207;28;20248;-81
2022/10/20 05:03:21;;;;;;;10.90;7.37;;;5.00;1.00;;;;;;10502930;28;20570;-80
2022/10/20 05:08:50;;;;;;;10.77;7.63;;;4.90;1.00;;;;;;10500359;28;20203;-82
2022/10/20 05:14:11;;;;;;;13.23;6.20;;;5.00;1.00;;;;;;10483392;28;20248;-81
2022/10/20 05:19:32;;;;;;;12.93;5.70;;;5.10;1.00;;;;;;10499258;28;20387;-80
2022/10/20 05:24:54;;;;;;;8.13;4.40;;;5.20;99.90;;;;;;10460529;28;20250;-81
2022/10/20 05:30:16;;;;;;;8.13;4.27;;;5.30;99.90;;;;;;10501464;28;20238;-81
2022/10/20 05:35:38;;;;;;;10.13;4.53;;;5.40;99.90;;;;;;10495771;28;20207;-81
2022/10/20 05:41:11;;;;;;;10.10;4.93;;;5.50;99.90;;;;;;10497295;28;20225;-81
2022/10/20 05:46:34;;;;;;;6.67;4.53;;;5.50;99.90;;;;;;10495528;28;20230;-82
2022/10/20 05:51:55;;;;;;;11.23;5.40;;;5.50;99.90;;;;;;10497998;28;20399;-81
2022/10/20 05:57:16;;;;;;;11.57;6.63;;;5.50;1.00;;;;;;10500676;28;20212;-81
2022/10/20 06:02:37;;;;;;;9.53;5.43;;;5.60;99.90;;;;;;10494900;28;20227;-82
2022/10/20 06:07:58;;;;;;;11.40;5.13;;;5.60;99.90;;;;;;10484092;28;20495;-81
2022/10/20 06:13:19;;;;;;;8.27;4.70;;;5.70;99.90;;;;;;10497494;28;20233;-83
2022/10/20 06:18:44;;;;;;;22.37;13.30;;;5.70;99.90;;;;;;10499755;28;20201;-81
2022/10/20 06:24:06;;;;;;;48.27;23.23;;;5.70;99.90;;;;;;10467318;28;20589;-81
2022/10/20 06:29:27;;;;;;;157.17;67.63;;;6.70;1.00;;;;;;10493553;28;20255;-81
2022/10/20 06:34:48;;;;;;;88.73;37.97;;;7.80;1.00;;;;;;10486977;28;20413;-82
2022/10/20 06:40:10;;;;;;;73.57;33.30;;;8.70;1.00;;;;;;10479895;28;20199;-82
2022/10/20 06:45:32;;;;;;;163.83;63.17;;;9.10;1.00;;;;;;10468039;28;20531;-81
2022/10/20 06:51:04;;;;;;;172.37;73.37;;;10.20;99.90;;;;;;10484204;28;20276;-82
2022/10/20 06:56:28;;;;;;;147.75;67.38;;;11.30;99.90;;;;;;10493142;28;20190;-82
2022/10/20 07:01:49;;;;;;;120.50;50.07;;;12.20;1.00;;;;;;10492842;28;20232;-82
2022/10/20 07:07:10;;;;;;;137.30;58.13;;;11.50;99.90;;;;;;10504602;28;20251;-82
2022/10/20 07:12:32;;;;;;;84.97;44.33;;;10.80;99.90;;;;;;10497430;28;20209;-82
2022/10/20 07:17:53;;;;;;;64.23;35.17;;;10.00;1.00;;;;;;10480718;28;20207;-82
2022/10/20 07:23:14;;;;;;;48.63;30.23;;;9.70;1.00;;;;;;10472036;28;20226;-81
2022/10/20 07:28:38;;;;;;;50.83;31.73;;;9.50;99.90;;;;;;10391382;28;20250;-81
2022/10/20 07:34:00;;;;;;;52.70;31.07;;;9.40;99.90;;;;;;10407830;28;20226;-82
2022/10/20 07:39:27;;;;;;;39.37;23.53;;;9.60;1.00;;;;;;10463926;28;20524;-82
2022/10/20 07:44:48;;;;;;;29.47;16.57;;;9.60;1.00;;;;;;10444440;28;20249;-85
2022/10/20 07:50:11;;;;;;;15.77;9.47;;;9.50;99.90;;;;;;10403230;28;20201;-81
2022/10/20 07:55:33;;;;;;;5.22;1.80;;;9.80;1.00;;;;;;10419871;28;20208;-81
2022/10/20 08:00:58;;;;;;;2.15;1.70;;;;;;;;;;10422979;28;20218;-82
2022/10/20 08:06:20;;;;;;;2.47;1.13;;;;;;;;;;10444533;28;20279;-82
2022/10/20 08:11:41;;;;;;;2.08;1.40;;;15.60;72.90;;;;;;10416330;28;20287;-81
2022/10/20 08:17:03;;;;;;;1.73;1.30;;;;;;;;;;10391671;28;20258;-82
2022/10/20 08:35:27;;;;;;;3.05;0.85;;;19.40;1.00;;;;;;10619855;27;20556;-80
2022/10/20 08:40:48;;;;;;;11.18;6.55;;;19.00;1.00;;;;;;10562616;28;20392;-79
2022/10/20 08:46:17;;;;;;;5.57;3.22;;;16.90;1.00;;;;;;10563370;28;20390;-79
2022/10/20 08:51:43;;;;;;;5.93;4.18;;;15.20;1.00;;;;;;10630272;28;20230;-80
2022/10/20 08:57:22;;;;;;;7.50;1.98;;;14.00;1.00;;;;;;10591183;28;20238;-78
2022/10/20 09:02:43;;;;;;;3.55;1.58;;;13.30;1.00;;;;;;10619657;27;20259;-81
2022/10/20 09:08:04;;;;;;;3.47;1.75;;;12.90;1.00;;;;;;10576770;28;20209;-83
2022/10/20 09:13:31;;;;;;;5.37;3.33;;;12.50;1.00;;;;;;10595034;27;20401;-80
2022/10/20 09:18:59;;;;;;;2.53;1.63;;;12.10;1.00;;;;;;10590470;28;20265;-80
2022/10/20 09:24:21;;;;;;;1.90;0.93;;;12.00;1.00;;;;;;10573190;28;20253;-79
2022/10/20 09:29:44;;;;;;;3.97;2.63;;;11.90;1.00;;;;;;10578428;28;20201;-79
2022/10/20 09:35:17;;;;;;;3.00;1.40;;;11.60;1.00;;;;;;10559545;28;20242;-77
2022/10/20 09:41:00;;;;;;;6.20;3.97;;;11.70;1.00;;;;;;10574342;28;20236;-86
2022/10/20 09:46:25;;;;;;;3.37;2.03;;;11.70;1.00;;;;;;10548484;28;20197;-82
2022/10/20 09:51:47;;;;;;;4.93;2.53;;;11.70;1.00;;;;;;10516271;28;20250;-81
2022/10/20 09:57:16;;;;;;;2.43;1.47;;;11.80;1.00;;;;;;10546021;28;20499;-80
2022/10/20 10:02:37;;;;;;;3.47;1.53;;;11.70;1.00;;;;;;10529577;28;20205;-81
2022/10/20 10:08:00;;;;;;;3.47;2.27;;;11.70;1.00;;;;;;10533461;28;20254;-80
2022/10/20 10:13:25;;;;;;;1.20;0.90;;;11.70;1.00;;;;;;10537281;28;20216;-81
2022/10/20 10:19:01;;;;;;;2.37;1.53;;;11.70;1.00;;;;;;10518059;28;20500;-81
2022/10/20 10:24:35;;;;;;;7.03;3.93;;;11.80;1.00;;;;;;10541549;28;20211;-82
2022/10/20 10:30:29;;;;;;;12.97;6.70;;;11.90;1.00;;;;;;10533809;28;20197;-79
2022/10/20 10:35:51;;;;;;;2.30;1.33;;;11.80;1.00;;;;;;10541526;28;20193;-81
2022/10/20 10:41:22;;;;;;;16.27;6.93;;;11.90;1.00;;;;;;10524860;28;20522;-82
2022/10/20 10:46:53;;;;;;;2.03;1.40;;;12.00;1.00;;;;;;10502377;28;20308;-80
2022/10/20 10:52:34;;;;;;;1.10;0.80;;;12.30;1.00;;;;;;10515914;28;20243;-84
2022/10/20 10:58:10;;;;;;;2.78;1.38;;;13.20;1.00;;;;;;10539081;28;20225;-82
2022/10/20 11:03:46;;;;;;;3.33;2.10;;;15.50;1.00;;;;;;10509131;28;20211;-82
2022/10/20 11:09:23;;;;;;;4.72;2.13;;;17.80;1.00;;;;;;10544010;28;20841;-81
2022/10/20 11:15:07;;;;;;;1.63;1.15;;;19.80;1.00;;;;;;10574081;28;20256;-82
2022/10/20 11:20:35;;;;;;;2.75;1.95;;;;;;;;;;10584889;28;20198;-80
2022/10/20 11:26:10;;;;;;;2.67;1.45;;;;;;;;;;10529051;28;20200;-87
2022/10/20 11:31:54;;;;;;;1.52;1.02;;;22.10;1.00;;;;;;10556661;28;20253;-82
2022/10/20 11:37:29;;;;;;;1.58;1.48;;;21.60;1.00;;;;;;10527845;28;20277;-82
2022/10/20 11:43:03;;;;;;;2.20;1.85;;;22.10;1.00;;;;;;10557508;28;20198;-81
2022/10/20 11:48:28;;;;;;;2.13;1.25;;;22.10;1.00;;;;;;10540992;28;20206;-80
2022/10/20 11:54:13;;;;;;;26.48;15.05;;;22.10;1.00;;;;;;10556747;28;20221;-84
2022/10/20 11:59:51;;;;;;;4.03;2.25;;;21.80;1.00;;;;;;10441273;28;20261;-83
2022/10/20 12:05:49;;;;;;;4.05;1.45;;;22.40;1.00;;;;;;10455166;28;20212;-80
2022/10/20 12:11:34;;;;;;;1.15;1.05;;;23.00;1.00;;;;;;10469240;28;20401;-80
2022/10/20 12:16:57;;;;;;;9.63;6.32;;;22.70;1.00;;;;;;10423556;28;20502;-81
2022/10/20 12:22:27;;;;;;;1.45;1.00;;;22.40;1.00;;;;;;10423658;28;20202;-82
2022/10/20 12:28:19;;;;;;;8.73;5.05;;;22.50;1.00;;;;;;10413105;28;20244;-83
2022/10/20 12:33:49;;;;;;;3.20;2.38;;;22.60;1.00;;;;;;10431912;28;20231;-82
2022/10/20 12:39:17;;;;;;;4.60;2.40;;;23.00;1.00;;;;;;10498840;28;20203;-83
2022/10/20 12:44:42;;;;;;;4.97;2.20;;;22.30;1.00;;;;;;10514020;28;20195;-82
2022/10/20 12:50:28;;;;;;;7.00;4.18;;;21.60;1.00;;;;;;10498894;28;20207;-82
2022/10/20 12:56:14;;;;;;;6.55;4.28;;;20.50;1.00;;;;;;10485312;28;20237;-82
2022/10/20 13:02:08;;;;;;;4.95;3.65;;;20.50;1.00;;;;;;10521740;28;20461;-82
2022/10/20 13:07:47;;;;;;;6.88;2.05;;;21.30;1.00;;;;;;10467558;28;20275;-84
2022/10/20 13:13:08;;;;;;;2.65;2.00;;;21.20;1.00;;;;;;10436808;28;20254;-82
2022/10/20 13:18:35;;;;;;;4.78;2.83;;;21.90;1.00;;;;;;10439379;28;20258;-84
2022/10/20 13:23:56;;;;;;;5.03;1.98;;;21.90;1.00;;;;;;10460869;28;20228;-81
2022/10/20 13:29:22;;;;;;;3.42;1.85;;;21.00;1.00;;;;;;10473258;28;20203;-83
2022/10/20 13:35:12;;;;;;;2.47;1.50;;;20.40;1.00;;;;;;10460456;28;20274;-83
2022/10/20 13:40:40;;;;;;;3.33;2.60;;;;;;;;;;10463793;28;20250;-83
2022/10/20 13:46:19;;;;;;;9.20;6.75;;;18.20;1.00;;;;;;10546549;28;20489;-81
2022/10/20 13:51:48;;;;;;;15.45;10.00;;;16.40;1.00;;;;;;10561424;28;20222;-85
2022/10/20 13:57:45;;;;;;;3.45;2.70;;;15.40;1.00;;;;;;10561483;28;20395;-84
2022/10/20 14:03:17;;;;;;;6.45;2.42;;;14.90;1.00;;;;;;10561520;28;20215;-84
2022/10/20 14:08:42;;;;;;;3.78;2.47;;;14.60;1.00;;;;;;10545472;28;20493;-84
2022/10/20 14:14:03;;;;;;;6.00;4.60;;;14.10;1.00;;;;;;10559625;28;20416;-82
2022/10/20 14:19:29;;;;;;;5.10;3.00;;;13.70;1.00;;;;;;10546044;28;20289;-81
2022/10/20 14:24:55;;;;;;;2.67;1.95;;;13.70;1.00;;;;;;10563119;28;20213;-81
2022/10/20 14:30:17;;;;;;;3.90;3.10;;;13.50;1.00;;;;;;10517514;28;20242;-82
2022/10/20 14:35:45;;;;;;;4.83;3.23;;;13.40;1.00;;;;;;10488942;28;20241;-82
2022/10/20 14:41:08;;;;;;;20.67;11.87;;;13.10;1.00;;;;;;10518850;28;20394;-81
2022/10/20 14:46:34;;;;;;;14.30;9.97;;;12.70;1.00;;;;;;10488671;28;20214;-81
2022/10/20 14:52:15;;;;;;;5.87;4.70;;;12.60;1.00;;;;;;10506977;28;20225;-83
2022/10/20 14:57:43;;;;;;;9.75;5.53;;;12.40;1.00;;;;;;10558369;28;20203;-86
2022/10/20 15:03:06;;;;;;;4.10;3.30;;;12.30;1.00;;;;;;10545843;28;20270;-81
2022/10/20 15:08:28;;;;;;;5.10;3.20;;;12.10;1.00;;;;;;10567805;27;20392;-81
2022/10/20 15:13:51;;;;;;;10.17;5.47;;;11.90;1.00;;;;;;10474036;28;20482;-81
2022/10/20 15:19:30;;;;;;;9.47;6.40;;;;;;;;;;10508059;28;20193;-83
2022/10/20 15:24:51;;;;;;;12.40;7.53;;;;;;;;;;10506001;28;20217;-80
2022/10/20 15:30:16;;;;;;;13.53;7.27;;;;;;;;;;10526019;28;20224;-80
2022/10/20 15:35:43;;;;;;;33.97;15.97;;;;;;;;;;10529583;28;20230;-81
2022/10/20 15:41:04;;;;;;;11.53;6.47;;;11.30;1.00;;;;;;10505712;28;20199;-83
2022/10/20 15:46:26;;;;;;;5.17;3.67;;;10.90;1.00;;;;;;10521198;28;20214;-81
2022/10/20 15:51:49;;;;;;;8.47;4.27;;;10.70;26.80;;;;;;10505767;28;20546;-80
2022/10/20 15:57:10;;;;;;;22.67;10.33;;;10.40;1.00;;;;;;10519882;28;20204;-79
2022/10/20 16:02:31;;;;;;;19.30;10.23;;;10.30;1.00;;;;;;10519697;28;20542;-80
2022/10/20 16:07:54;;;;;;;26.33;12.07;;;10.20;99.90;;;;;;10536428;28;20280;-80
2022/10/20 16:13:17;;;;;;;23.57;13.10;;;;;;;;;;10534926;28;20237;-79
2022/10/20 16:18:38;;;;;;;40.13;20.07;;;9.80;1.00;;;;;;10504822;28;20196;-79
2022/10/20 16:24:00;;;;;;;50.77;23.00;;;;;;;;;;10519059;28;20200;-81
2022/10/20 16:29:21;;;;;;;37.13;18.93;;;9.50;1.00;;;;;;10521063;28;20203;-80
2022/10/20 16:34:42;;;;;;;25.00;13.77;;;9.60;99.90;;;;;;10518538;28;20404;-82
2022/10/20 16:40:04;;;;;;;28.50;16.43;;;;;;;;;;10518450;28;20215;-80
2022/10/20 16:45:25;;;;;;;64.40;37.33;;;9.40;1.00;;;;;;10504225;28;20203;-79
2022/10/20 16:50:47;;;;;;;149.23;82.23;;;;;;;;;;10537966;28;20196;-80
2022/10/20 16:56:08;;;;;;;121.77;67.73;;;9.20;1.00;;;;;;10510906;28;20217;-82
2022/10/20 17:01:30;;;;;;;93.60;45.77;;;;;;;;;;10512774;28;20194;-81
2022/10/20 17:06:52;;;;;;;71.90;33.17;;;;;;;;;;10498452;28;20494;-79
2022/10/20 17:12:13;;;;;;;64.37;32.63;;;;;;;;;;10525428;28;20444;-79
2022/10/20 17:17:34;;;;;;;54.77;29.17;;;;;;;;;;10540125;28;20219;-79
2022/10/20 17:22:56;;;;;;;69.23;35.90;;;;;;;;;;10525163;28;20198;-79
2022/10/20 17:28:18;;;;;;;79.67;39.33;;;;;;;;;;10510483;28;20317;-81
2022/10/20 17:33:40;;;;;;;82.50;43.03;;;;;;;;;;10483760;28;20461;-80
2022/10/20 17:39:04;;;;;;;86.77;43.23;;;;;;;;;;10483974;28;20222;-80
2022/10/20 17:44:26;;;;;;;42.47;23.70;;;;;;;;;;10455446;28;20200;-79
2022/10/20 17:49:47;;;;;;;18.57;11.70;;;;;;;;;;10482991;28;20197;-79
2022/10/20 17:55:08;;;;;;;15.27;8.83;;;8.30;1.00;;;;;;10468781;28;20273;-79
2022/10/20 18:00:29;;;;;;;17.43;9.43;;;8.20;99.90;;;;;;10482528;28;20201;-79
2022/10/20 18:05:57;;;;;;;15.27;9.20;;;8.10;1.00;;;;;;10501049;28;20247;-80
2022/10/20 18:11:21;;;;;;;22.77;12.53;;;8.00;1.00;;;;;;10494562;28;20199;-80
2022/10/20 18:16:43;;;;;;;25.53;13.60;;;7.80;99.90;;;;;;10509224;28;20244;-80
2022/10/20 18:22:03;;;;;;;24.53;16.03;;;7.80;99.90;;;;;;10508951;28;20200;-81
2022/10/20 18:27:25;;;;;;;23.10;15.30;;;7.70;1.00;;;;;;10523081;28;20197;-80
2022/10/20 18:32:46;;;;;;;20.20;11.53;;;7.70;1.00;;;;;;10537325;28;20259;-80
2022/10/20 18:38:07;;;;;;;22.57;13.10;;;7.60;99.90;;;;;;10522231;28;20199;-80
2022/10/20 18:43:28;;;;;;;32.53;21.67;;;7.60;99.90;;;;;;10522820;28;20511;-80
2022/10/20 18:48:50;;;;;;;24.30;14.50;;;7.50;99.90;;;;;;10536525;28;20239;-80
2022/10/20 18:54:12;;;;;;;27.27;17.83;;;7.40;99.90;;;;;;10536484;28;20277;-80
2022/10/20 18:59:33;;;;;;;30.53;19.10;;;7.40;99.90;;;;;;10522102;28;20240;-81
2022/10/20 19:04:56;;;;;;;22.10;14.07;;;7.30;1.00;;;;;;10521371;28;20203;-80
2022/10/20 19:10:17;;;;;;;20.50;13.07;;;7.20;99.90;;;;;;10521081;28;20276;-79
2022/10/20 19:15:39;;;;;;;19.03;11.77;;;7.10;1.00;;;;;;10505764;28;20228;-80
2022/10/20 19:21:04;;;;;;;18.73;10.57;;;7.10;99.90;;;;;;10520841;28;20215;-80
2022/10/20 19:26:30;;;;;;;16.10;10.07;;;7.00;99.90;;;;;;10507037;28;20192;-80
2022/10/20 19:31:53;;;;;;;20.90;11.87;;;7.00;1.00;;;;;;10478514;28;20242;-83
2022/10/20 19:37:14;;;;;;;14.43;10.00;;;7.00;1.00;;;;;;10464615;28;20276;-80
2022/10/20 19:42:36;;;;;;;15.60;10.30;;;7.00;1.00;;;;;;10478805;28;20207;-79
2022/10/20 19:47:57;;;;;;;20.80;12.40;;;6.90;1.00;;;;;;10478911;28;20227;-80
2022/10/20 19:53:18;;;;;;;13.23;9.27;;;6.90;1.00;;;;;;10465117;28;20228;-80
2022/10/20 19:58:40;;;;;;;16.97;9.53;;;6.80;1.00;;;;;;10492859;28;20196;-81
2022/10/20 20:04:02;;;;;;;15.57;9.00;;;6.80;1.00;;;;;;10477345;28;20495;-81
2022/10/20 20:09:28;;;;;;;15.67;9.20;;;6.70;99.90;;;;;;10463849;28;20206;-80
2022/10/20 20:14:49;;;;;;;19.47;9.57;;;6.60;99.90;;;;;;10501650;28;20415;-81
2022/10/20 20:20:10;;;;;;;16.37;8.20;;;6.60;1.00;;;;;;10535518;28;20203;-80
2022/10/20 20:25:43;;;;;;;13.87;7.87;;;6.50;1.00;;;;;;10512720;28;20199;-80
2022/10/20 20:31:08;;;;;;;14.97;8.73;;;6.50;1.00;;;;;;10476565;28;20608;-80
2022/10/20 20:36:29;;;;;;;14.77;8.43;;;6.50;1.00;;;;;;10491370;28;20522;-80
2022/10/20 20:41:51;;;;;;;16.17;8.70;;;6.40;1.00;;;;;;10477263;28;20271;-79
2022/10/20 20:47:12;;;;;;;12.30;8.13;;;6.50;1.00;;;;;;10496139;28;20206;-81
2022/10/20 20:52:33;;;;;;;14.23;7.47;;;6.50;1.00;;;;;;10476750;28;20229;-80
2022/10/20 20:57:54;;;;;;;11.27;7.13;;;6.40;1.00;;;;;;10491116;28;20422;-80
2022/10/20 21:03:17;;;;;;;13.90;7.97;;;6.40;1.00;;;;;;10462743;28;20205;-80
2022/10/20 21:08:41;;;;;;;16.03;8.50;;;6.50;1.00;;;;;;10477683;28;20203;-81
2022/10/20 21:14:27;;;;;;;14.03;7.60;;;6.40;99.90;;;;;;10514999;28;20257;-81
2022/10/20 21:19:48;;;;;;;17.67;8.23;;;6.30;1.00;;;;;;10519092;28;20201;-81
2022/10/20 21:25:09;;;;;;;21.77;12.00;;;6.20;1.00;;;;;;10526660;28;20242;-80
2022/10/20 21:30:30;;;;;;;18.07;9.87;;;6.10;1.00;;;;;;10476043;28;20187;-80
2022/10/20 21:35:52;;;;;;;12.57;7.57;;;6.10;1.00;;;;;;10461996;28;20228;-85
2022/10/20 21:41:34;;;;;;;17.13;8.40;;;6.10;1.00;;;;;;10493037;28;20197;-80
2022/10/20 21:46:54;;;;;;;14.97;8.13;;;6.00;5.80;;;;;;10482967;28;20202;-81
2022/10/20 21:52:36;;;;;;;17.37;9.87;;;6.00;24.70;;;;;;10468929;28;20203;-80
2022/10/20 21:57:57;;;;;;;13.23;8.53;;;5.90;1.00;;;;;;10468490;28;20207;-80
2022/10/20 22:03:19;;;;;;;16.67;9.97;;;6.00;1.00;;;;;;10482645;28;20233;-80
2022/10/20 22:08:43;;;;;;;13.07;7.83;;;5.90;1.00;;;;;;10482417;28;20204;-81
2022/10/20 22:14:05;;;;;;;14.73;7.00;;;5.90;43.60;;;;;;10517488;28;20238;-80
2022/10/20 22:19:26;;;;;;;12.23;6.87;;;5.80;27.00;;;;;;10537897;28;20194;-80
2022/10/20 22:24:47;;;;;;;21.93;10.60;;;5.80;99.90;;;;;;10535049;28;20243;-79
2022/10/20 22:30:09;;;;;;;17.47;7.80;;;5.70;99.90;;;;;;10481149;28;20226;-80
2022/10/20 22:35:30;;;;;;;11.73;6.90;;;;;;;;;;10481265;28;20238;-81
2022/10/20 22:40:52;;;;;;;11.17;6.70;;;;;;;;;;10480922;28;20210;-80
2022/10/20 22:46:14;;;;;;;9.57;5.93;;;;;;;;;;10466886;28;20506;-80
2022/10/20 22:51:36;;;;;;;9.70;5.70;;;;;;;;;;10480982;28;20580;-79
2022/10/20 22:56:57;;;;;;;14.73;7.37;;;;;;;;;;10452342;28;20555;-80
2022/10/20 23:02:18;;;;;;;11.13;6.70;;;5.80;99.90;;;;;;10480425;28;20225;-79
2022/10/20 23:07:40;;;;;;;10.10;6.60;;;;;;;;;;10466505;28;20204;-80
2022/10/20 23:13:01;;;;;;;9.93;7.17;;;;;;;;;;10520799;28;20224;-80
2022/10/20 23:18:23;;;;;;;9.20;6.53;;;;;;;;;;10520713;28;20234;-80
2022/10/20 23:23:45;;;;;;;9.57;6.30;;;;;;;;;;10521090;28;20451;-83
2022/10/20 23:29:07;;;;;;;11.37;6.43;;;;;;;;;;10482105;28;20199;-80
2022/10/20 23:34:28;;;;;;;11.03;6.20;;;;;;;;;;10478885;28;20457;-80
2022/10/20 23:39:49;;;;;;;11.07;7.07;;;;;;;;;;10479029;28;20479;-80
2022/10/20 23:45:11;;;;;;;11.60;7.27;;;;;;;;;;10467109;28;20209;-79
2022/10/20 23:50:32;;;;;;;8.07;5.50;;;;;;;;;;10478354;28;20508;-80
2022/10/20 23:55:54;;;;;;;11.90;7.73;;;;;;;;;;10477969;28;20247;-80
